This is the latest recevied weather packets stored in our database for station/object KD7AWQ. If no packets are shown the sender has not sent any weather packets the latest 10 day(s).
| Time | Temp. | Humidity | Pressure | Rain* | Wind** | Luminosity | Snow |
|---|---|---|---|---|---|---|---|
| 1778140410 | 15.56° C | 26% | 1186.1 hPa | 0 mm | - | 0 W/m² | - |
| 1778140106 | 15.56° C | 27% | 1186.1 hPa | 0 mm | - | 0 W/m² | - |
| 1778139804 | 16.11° C | 26% | 1186.2 hPa | 0 mm | - | 0 W/m² | - |
| 1778139501 | 16.11° C | 26% | 1186.2 hPa | 0 mm | - | 0 W/m² | - |
| 1778139198 | 16.11° C | 26% | 1186.3 hPa | 0 mm | - | 0 W/m² | - |
| 1778138895 | 16.11° C | 26% | 1186.1 hPa | 0 mm | - | 0 W/m² | - |
| 1778138592 | 16.11° C | 26% | 1186.2 hPa | 0 mm | - | 0 W/m² | - |
| 1778138290 | 16.11° C | 26% | 1186.1 hPa | 0 mm | - | 0 W/m² | - |
| 1778137986 | 16.11° C | 25% | 1186.4 hPa | 0 mm | - | 0 W/m² | - |
| 1778137683 | 16.11° C | 25% | 1186.1 hPa | 0 mm | - | 0 W/m² | - |
| 1778137380 | 16.11° C | 25% | 1186.3 hPa | 0 mm | - | 0 W/m² | - |
| 1778137077 | 16.11° C | 25% | 1186.2 hPa | 0 mm | - | 0 W/m² | - |
| 1778136773 | 16.11° C | 25% | 1186.1 hPa | 0 mm | - | 0 W/m² | - |
| 1778136471 | 15.56° C | 25% | 1186 hPa | 0 mm | - | 0 W/m² | - |
| 1778136169 | 15.56° C | 25% | 1186 hPa | 0 mm | - | 0 W/m² | - |
| 1778135867 | 15.56° C | 25% | 1186.2 hPa | 0 mm | - | 0 W/m² | - |
| 1778135563 | 15.56° C | 25% | 1186 hPa | 0 mm | - | 0 W/m² | - |
| 1778135260 | 15.56° C | 25% | 1186.2 hPa | 0 mm | - | 0 W/m² | - |
| 1778134957 | 15° C | 25% | 1186.2 hPa | 0 mm | - | 0 W/m² | - |
| 1778134655 | 15.56° C | 25% | 1186.2 hPa | 0 mm | - | 0 W/m² | - |
| 1778134353 | 16.11° C | 23% | 1186 hPa | 0 mm | - | 0 W/m² | - |
| 1778134051 | 17.78° C | 20% | 1186.1 hPa | 0 mm | - | 0 W/m² | - |
| 1778133747 | 18.33° C | 16% | 1186 hPa | 0 mm | - | 0 W/m² | - |
| 1778133444 | 18.89° C | 15% | 1186 hPa | 0 mm | - | 0 W/m² | - |
| 1778133139 | 18.89° C | 16% | 1186.2 hPa | 0 mm | - | 0 W/m² | - |
* Rain latest hour (hover to see other rain measurements)
** Current wind speed in m/s (hover to see current wind gust speed)